sensor_id;sensor_type;location;lat;lon;timestamp;P1;P2;P0
78512;PMS5003;67809;55.034;73.462;2024-01-11T00:00:50;11.00;8.00;5.00
78512;PMS5003;67809;55.034;73.462;2024-01-11T00:03:16;8.00;7.00;4.00
78512;PMS5003;67809;55.034;73.462;2024-01-11T00:05:42;14.50;11.00;7.50
78512;PMS5003;67809;55.034;73.462;2024-01-11T00:08:08;14.75;11.25;7.00
78512;PMS5003;67809;55.034;73.462;2024-01-11T00:10:34;11.33;9.33;6.33
78512;PMS5003;67809;55.034;73.462;2024-01-11T00:13:00;9.00;7.00;4.00
78512;PMS5003;67809;55.034;73.462;2024-01-11T00:15:26;9.50;7.25;4.75
78512;PMS5003;67809;55.034;73.462;2024-01-11T00:17:52;7.25;6.00;3.00
78512;PMS5003;67809;55.034;73.462;2024-01-11T00:20:19;11.00;9.00;4.75
78512;PMS5003;67809;55.034;73.462;2024-01-11T00:22:45;9.00;8.00;5.00
78512;PMS5003;67809;55.034;73.462;2024-01-11T00:25:11;11.00;8.00;5.00
78512;PMS5003;67809;55.034;73.462;2024-01-11T00:27:37;16.75;13.00;6.00
78512;PMS5003;67809;55.034;73.462;2024-01-11T00:30:03;12.00;9.00;4.00
78512;PMS5003;67809;55.034;73.462;2024-01-11T00:32:30;13.00;10.00;5.00
78512;PMS5003;67809;55.034;73.462;2024-01-11T00:34:56;8.25;7.00;4.00
78512;PMS5003;67809;55.034;73.462;2024-01-11T00:37:22;12.00;7.75;5.00
78512;PMS5003;67809;55.034;73.462;2024-01-11T00:39:48;11.25;9.25;6.00
78512;PMS5003;67809;55.034;73.462;2024-01-11T00:42:14;10.00;7.00;4.33
78512;PMS5003;67809;55.034;73.462;2024-01-11T00:44:40;16.00;12.00;7.75
78512;PMS5003;67809;55.034;73.462;2024-01-11T00:47:06;16.00;12.00;6.50
78512;PMS5003;67809;55.034;73.462;2024-01-11T00:49:32;14.75;13.00;7.75
78512;PMS5003;67809;55.034;73.462;2024-01-11T00:51:58;17.00;14.00;9.33
78512;PMS5003;67809;55.034;73.462;2024-01-11T00:54:24;11.00;9.00;6.00
78512;PMS5003;67809;55.034;73.462;2024-01-11T00:56:50;7.00;6.00;4.00
78512;PMS5003;67809;55.034;73.462;2024-01-11T00:59:17;13.50;10.00;7.00
78512;PMS5003;67809;55.034;73.462;2024-01-11T01:01:47;14.00;10.33;6.00
78512;PMS5003;67809;55.034;73.462;2024-01-11T01:04:13;7.25;5.75;3.50
78512;PMS5003;67809;55.034;73.462;2024-01-11T01:06:39;10.25;8.00;5.00
78512;PMS5003;67809;55.034;73.462;2024-01-11T01:09:05;13.50;10.00;6.00
78512;PMS5003;67809;55.034;73.462;2024-01-11T01:11:31;14.00;11.00;7.00
78512;PMS5003;67809;55.034;73.462;2024-01-11T01:13:57;13.00;10.00;6.00
78512;PMS5003;67809;55.034;73.462;2024-01-11T01:16:23;11.00;9.00;5.00
78512;PMS5003;67809;55.034;73.462;2024-01-11T01:18:49;9.00;7.25;5.00
78512;PMS5003;67809;55.034;73.462;2024-01-11T01:21:15;15.00;11.67;7.00
78512;PMS5003;67809;55.034;73.462;2024-01-11T01:23:41;17.75;14.00;9.50
78512;PMS5003;67809;55.034;73.462;2024-01-11T01:26:07;14.00;12.00;8.00
78512;PMS5003;67809;55.034;73.462;2024-01-11T01:28:33;7.25;4.75;3.00
78512;PMS5003;67809;55.034;73.462;2024-01-11T01:31:03;8.00;6.00;4.00
78512;PMS5003;67809;55.034;73.462;2024-01-11T01:33:29;16.75;12.00;8.00
78512;PMS5003;67809;55.034;73.462;2024-01-11T01:35:55;16.50;14.00;9.00
78512;PMS5003;67809;55.034;73.462;2024-01-11T01:38:21;5.50;4.00;2.00
78512;PMS5003;67809;55.034;73.462;2024-01-11T01:40:47;13.00;10.00;6.00
78512;PMS5003;67809;55.034;73.462;2024-01-11T01:43:13;12.75;9.50;5.00
78512;PMS5003;67809;55.034;73.462;2024-01-11T01:45:39;6.75;5.25;2.50
78512;PMS5003;67809;55.034;73.462;2024-01-11T01:48:06;13.50;9.00;6.00
78512;PMS5003;67809;55.034;73.462;2024-01-11T01:50:33;15.00;12.00;7.00
78512;PMS5003;67809;55.034;73.462;2024-01-11T01:52:59;10.00;8.00;4.67
78512;PMS5003;67809;55.034;73.462;2024-01-11T01:55:26;11.00;8.00;5.00
78512;PMS5003;67809;55.034;73.462;2024-01-11T01:57:53;10.50;8.75;6.00
78512;PMS5003;67809;55.034;73.462;2024-01-11T02:00:19;8.50;7.00;4.00
78512;PMS5003;67809;55.034;73.462;2024-01-11T02:02:45;14.00;11.00;6.00
78512;PMS5003;67809;55.034;73.462;2024-01-11T02:05:14;6.00;4.75;3.00
78512;PMS5003;67809;55.034;73.462;2024-01-11T02:07:41;14.25;11.00;7.00
78512;PMS5003;67809;55.034;73.462;2024-01-11T02:10:07;14.00;11.50;6.25
78512;PMS5003;67809;55.034;73.462;2024-01-11T02:12:37;6.25;5.25;3.50
78512;PMS5003;67809;55.034;73.462;2024-01-11T02:15:07;13.00;9.25;6.00
78512;PMS5003;67809;55.034;73.462;2024-01-11T02:17:34;10.25;8.00;5.25
78512;PMS5003;67809;55.034;73.462;2024-01-11T02:20:00;15.75;11.75;7.75
78512;PMS5003;67809;55.034;73.462;2024-01-11T02:22:28;8.33;6.67;3.00
78512;PMS5003;67809;55.034;73.462;2024-01-11T02:24:56;11.00;9.00;6.00
78512;PMS5003;67809;55.034;73.462;2024-01-11T02:27:23;10.00;8.50;5.00
78512;PMS5003;67809;55.034;73.462;2024-01-11T02:29:49;12.75;9.75;6.00
78512;PMS5003;67809;55.034;73.462;2024-01-11T02:32:15;15.67;11.00;7.00
78512;PMS5003;67809;55.034;73.462;2024-01-11T02:34:41;8.00;6.50;3.00
78512;PMS5003;67809;55.034;73.462;2024-01-11T02:37:08;8.75;7.00;4.00
78512;PMS5003;67809;55.034;73.462;2024-01-11T02:39:35;15.00;10.00;4.00
78512;PMS5003;67809;55.034;73.462;2024-01-11T02:42:02;16.25;11.50;7.00
78512;PMS5003;67809;55.034;73.462;2024-01-11T02:44:28;11.00;9.00;6.00
78512;PMS5003;67809;55.034;73.462;2024-01-11T02:46:54;10.75;7.50;4.00
78512;PMS5003;67809;55.034;73.462;2024-01-11T02:49:20;18.00;12.25;7.75
78512;PMS5003;67809;55.034;73.462;2024-01-11T02:51:46;11.00;7.00;5.00
78512;PMS5003;67809;55.034;73.462;2024-01-11T02:54:12;10.00;8.00;4.25
78512;PMS5003;67809;55.034;73.462;2024-01-11T02:56:38;9.75;8.00;4.25
78512;PMS5003;67809;55.034;73.462;2024-01-11T02:59:05;19.75;15.25;10.00
78512;PMS5003;67809;55.034;73.462;2024-01-11T03:01:31;11.50;10.00;5.00
78512;PMS5003;67809;55.034;73.462;2024-01-11T03:03:58;9.25;8.00;4.00
78512;PMS5003;67809;55.034;73.462;2024-01-11T03:06:24;10.75;8.75;6.00
78512;PMS5003;67809;55.034;73.462;2024-01-11T03:08:50;12.50;9.00;5.25
78512;PMS5003;67809;55.034;73.462;2024-01-11T03:11:16;17.75;13.00;8.00
78512;PMS5003;67809;55.034;73.462;2024-01-11T03:13:42;11.50;9.75;6.50
78512;PMS5003;67809;55.034;73.462;2024-01-11T03:16:08;12.75;8.25;5.00
78512;PMS5003;67809;55.034;73.462;2024-01-11T03:18:34;9.00;8.00;5.00
78512;PMS5003;67809;55.034;73.462;2024-01-11T03:21:00;11.00;8.00;4.75
78512;PMS5003;67809;55.034;73.462;2024-01-11T03:23:26;14.25;11.50;6.00
78512;PMS5003;67809;55.034;73.462;2024-01-11T03:25:52;8.00;6.50;5.00
78512;PMS5003;67809;55.034;73.462;2024-01-11T03:28:18;17.75;13.75;8.00
78512;PMS5003;67809;55.034;73.462;2024-01-11T03:30:44;18.00;13.00;6.00
78512;PMS5003;67809;55.034;73.462;2024-01-11T03:33:11;11.50;9.25;5.75
78512;PMS5003;67809;55.034;73.462;2024-01-11T03:35:37;27.00;19.00;11.50
78512;PMS5003;67809;55.034;73.462;2024-01-11T03:38:05;9.75;7.25;4.50
78512;PMS5003;67809;55.034;73.462;2024-01-11T03:40:31;18.50;15.50;9.50
78512;PMS5003;67809;55.034;73.462;2024-01-11T03:42:59;17.00;14.00;7.67
78512;PMS5003;67809;55.034;73.462;2024-01-11T03:45:25;8.75;7.25;4.25
78512;PMS5003;67809;55.034;73.462;2024-01-11T03:47:51;12.00;9.50;5.00
78512;PMS5003;67809;55.034;73.462;2024-01-11T03:50:17;15.25;13.00;7.75
78512;PMS5003;67809;55.034;73.462;2024-01-11T03:52:45;10.33;8.00;4.33
78512;PMS5003;67809;55.034;73.462;2024-01-11T03:55:11;12.00;8.00;4.50
78512;PMS5003;67809;55.034;73.462;2024-01-11T03:57:37;16.00;12.00;7.00
78512;PMS5003;67809;55.034;73.462;2024-01-11T04:00:03;8.25;7.00;5.00
78512;PMS5003;67809;55.034;73.462;2024-01-11T04:02:31;22.00;15.50;9.75
78512;PMS5003;67809;55.034;73.462;2024-01-11T04:04:58;30.50;24.00;15.75
78512;PMS5003;67809;55.034;73.462;2024-01-11T04:07:24;23.00;16.25;9.50
78512;PMS5003;67809;55.034;73.462;2024-01-11T04:09:50;19.75;14.50;8.00
78512;PMS5003;67809;55.034;73.462;2024-01-11T04:12:16;8.50;6.25;4.00
78512;PMS5003;67809;55.034;73.462;2024-01-11T04:14:42;9.33;8.00;5.33
78512;PMS5003;67809;55.034;73.462;2024-01-11T04:17:08;19.25;13.50;7.75
78512;PMS5003;67809;55.034;73.462;2024-01-11T04:19:34;12.75;8.75;5.50
78512;PMS5003;67809;55.034;73.462;2024-01-11T04:22:00;14.50;11.75;6.50
78512;PMS5003;67809;55.034;73.462;2024-01-11T04:24:26;10.33;9.00;5.33
78512;PMS5003;67809;55.034;73.462;2024-01-11T04:26:52;23.00;17.00;10.75
78512;PMS5003;67809;55.034;73.462;2024-01-11T04:29:18;10.50;9.00;5.00
78512;PMS5003;67809;55.034;73.462;2024-01-11T04:31:44;7.00;6.00;3.00
78512;PMS5003;67809;55.034;73.462;2024-01-11T04:34:10;8.00;6.00;3.00
78512;PMS5003;67809;55.034;73.462;2024-01-11T04:36:39;19.00;14.00;8.00
78512;PMS5003;67809;55.034;73.462;2024-01-11T04:39:05;11.75;9.50;7.00
78512;PMS5003;67809;55.034;73.462;2024-01-11T04:41:35;21.75;17.00;10.00
78512;PMS5003;67809;55.034;73.462;2024-01-11T04:44:02;21.67;17.00;10.00
78512;PMS5003;67809;55.034;73.462;2024-01-11T04:46:28;20.00;17.00;9.00
78512;PMS5003;67809;55.034;73.462;2024-01-11T04:48:54;22.00;16.00;10.00
78512;PMS5003;67809;55.034;73.462;2024-01-11T04:51:20;15.00;11.00;6.25
78512;PMS5003;67809;55.034;73.462;2024-01-11T04:53:46;20.00;15.00;9.00
78512;PMS5003;67809;55.034;73.462;2024-01-11T04:56:16;21.25;16.00;9.00
78512;PMS5003;67809;55.034;73.462;2024-01-11T04:58:42;17.00;14.00;9.00
78512;PMS5003;67809;55.034;73.462;2024-01-11T05:01:15;14.00;11.75;7.75
78512;PMS5003;67809;55.034;73.462;2024-01-11T05:03:41;9.67;7.00;6.00
78512;PMS5003;67809;55.034;73.462;2024-01-11T05:06:08;19.75;16.00;9.00
78512;PMS5003;67809;55.034;73.462;2024-01-11T05:08:34;12.00;10.00;6.00
78512;PMS5003;67809;55.034;73.462;2024-01-11T05:11:00;18.50;14.50;9.00
78512;PMS5003;67809;55.034;73.462;2024-01-11T05:13:26;21.75;16.25;9.00
78512;PMS5003;67809;55.034;73.462;2024-01-11T05:15:52;19.50;13.00;7.00
78512;PMS5003;67809;55.034;73.462;2024-01-11T05:18:18;23.50;16.00;9.75
78512;PMS5003;67809;55.034;73.462;2024-01-11T05:20:44;30.50;23.25;14.25
78512;PMS5003;67809;55.034;73.462;2024-01-11T05:23:10;20.60;16.20;9.40
78512;PMS5003;67809;55.034;73.462;2024-01-11T05:25:37;33.50;25.00;14.00
78512;PMS5003;67809;55.034;73.462;2024-01-11T05:28:03;24.00;19.00;11.00
78512;PMS5003;67809;55.034;73.462;2024-01-11T05:30:32;25.75;21.00;13.50
78512;PMS5003;67809;55.034;73.462;2024-01-11T05:32:58;32.25;23.00;13.25
78512;PMS5003;67809;55.034;73.462;2024-01-11T05:35:25;22.00;17.00;10.00
78512;PMS5003;67809;55.034;73.462;2024-01-11T05:37:53;21.00;17.00;9.75
78512;PMS5003;67809;55.034;73.462;2024-01-11T05:40:20;18.00;14.00;8.00
78512;PMS5003;67809;55.034;73.462;2024-01-11T05:42:47;13.50;9.75;6.00
78512;PMS5003;67809;55.034;73.462;2024-01-11T05:45:13;11.00;8.00;4.00
78512;PMS5003;67809;55.034;73.462;2024-01-11T05:47:42;15.00;11.00;7.00
78512;PMS5003;67809;55.034;73.462;2024-01-11T05:50:09;18.50;15.00;7.75
78512;PMS5003;67809;55.034;73.462;2024-01-11T05:52:36;9.00;7.25;4.25
78512;PMS5003;67809;55.034;73.462;2024-01-11T05:55:03;14.00;10.00;6.00
78512;PMS5003;67809;55.034;73.462;2024-01-11T05:57:29;13.50;10.50;5.75
78512;PMS5003;67809;55.034;73.462;2024-01-11T05:59:55;14.25;10.50;5.00
78512;PMS5003;67809;55.034;73.462;2024-01-11T06:02:21;14.75;11.25;6.25
78512;PMS5003;67809;55.034;73.462;2024-01-11T06:04:48;15.75;12.00;7.75
78512;PMS5003;67809;55.034;73.462;2024-01-11T06:07:15;26.25;18.50;11.25
78512;PMS5003;67809;55.034;73.462;2024-01-11T06:09:41;14.50;10.00;6.00
78512;PMS5003;67809;55.034;73.462;2024-01-11T06:12:07;13.00;8.00;4.50
78512;PMS5003;67809;55.034;73.462;2024-01-11T06:14:46;15.00;11.33;5.00
78512;PMS5003;67809;55.034;73.462;2024-01-11T06:17:13;14.25;10.00;5.00
78512;PMS5003;67809;55.034;73.462;2024-01-11T06:19:39;15.75;12.00;7.00
78512;PMS5003;67809;55.034;73.462;2024-01-11T06:22:05;17.00;13.00;7.50
78512;PMS5003;67809;55.034;73.462;2024-01-11T06:24:32;10.33;7.33;5.00
78512;PMS5003;67809;55.034;73.462;2024-01-11T06:26:58;13.00;11.00;5.50
78512;PMS5003;67809;55.034;73.462;2024-01-11T06:29:24;11.25;9.00;5.25
78512;PMS5003;67809;55.034;73.462;2024-01-11T06:31:50;7.00;7.00;5.00
78512;PMS5003;67809;55.034;73.462;2024-01-11T06:34:16;11.00;8.25;5.00
78512;PMS5003;67809;55.034;73.462;2024-01-11T06:36:42;14.50;12.00;7.00
78512;PMS5003;67809;55.034;73.462;2024-01-11T06:39:08;14.00;11.50;6.00
78512;PMS5003;67809;55.034;73.462;2024-01-11T06:41:35;14.50;12.00;8.00
78512;PMS5003;67809;55.034;73.462;2024-01-11T06:44:09;18.00;13.00;6.00
78512;PMS5003;67809;55.034;73.462;2024-01-11T06:46:35;17.00;11.00;6.00
78512;PMS5003;67809;55.034;73.462;2024-01-11T06:49:02;12.00;9.50;6.00
78512;PMS5003;67809;55.034;73.462;2024-01-11T06:51:28;11.00;9.25;6.00
78512;PMS5003;67809;55.034;73.462;2024-01-11T06:53:54;13.00;10.00;6.00
78512;PMS5003;67809;55.034;73.462;2024-01-11T06:56:20;17.50;11.50;6.50
78512;PMS5003;67809;55.034;73.462;2024-01-11T06:58:46;20.00;15.75;9.50
78512;PMS5003;67809;55.034;73.462;2024-01-11T07:01:13;22.75;17.75;11.00
78512;PMS5003;67809;55.034;73.462;2024-01-11T07:03:39;13.75;9.00;5.00
78512;PMS5003;67809;55.034;73.462;2024-01-11T07:06:06;12.67;10.00;6.00
78512;PMS5003;67809;55.034;73.462;2024-01-11T07:08:32;11.25;8.50;5.00
78512;PMS5003;67809;55.034;73.462;2024-01-11T07:11:02;21.00;17.50;10.75
78512;PMS5003;67809;55.034;73.462;2024-01-11T07:13:28;17.00;14.00;8.00
78512;PMS5003;67809;55.034;73.462;2024-01-11T07:15:54;9.50;6.75;4.00
78512;PMS5003;67809;55.034;73.462;2024-01-11T07:18:22;13.75;9.50;5.00
78512;PMS5003;67809;55.034;73.462;2024-01-11T07:20:49;17.75;13.75;8.00
78512;PMS5003;67809;55.034;73.462;2024-01-11T07:23:15;24.50;18.75;12.50
78512;PMS5003;67809;55.034;73.462;2024-01-11T07:25:42;9.00;7.00;6.00
78512;PMS5003;67809;55.034;73.462;2024-01-11T07:28:08;15.75;12.00;8.00
78512;PMS5003;67809;55.034;73.462;2024-01-11T07:30:34;10.25;9.00;6.00
78512;PMS5003;67809;55.034;73.462;2024-01-11T07:33:00;10.00;9.00;6.00
78512;PMS5003;67809;55.034;73.462;2024-01-11T07:35:27;11.25;8.00;5.00
78512;PMS5003;67809;55.034;73.462;2024-01-11T07:37:53;14.00;11.25;6.00
78512;PMS5003;67809;55.034;73.462;2024-01-11T07:40:20;26.25;20.00;12.50
78512;PMS5003;67809;55.034;73.462;2024-01-11T07:42:46;18.00;14.00;9.00
78512;PMS5003;67809;55.034;73.462;2024-01-11T07:45:12;20.00;16.00;10.00
78512;PMS5003;67809;55.034;73.462;2024-01-11T07:47:38;19.00;12.00;9.00
78512;PMS5003;67809;55.034;73.462;2024-01-11T07:50:05;15.50;12.25;6.00
78512;PMS5003;67809;55.034;73.462;2024-01-11T07:52:40;15.75;12.50;7.00
78512;PMS5003;67809;55.034;73.462;2024-01-11T07:55:07;16.75;12.50;8.00
78512;PMS5003;67809;55.034;73.462;2024-01-11T07:57:34;15.50;13.00;8.00
78512;PMS5003;67809;55.034;73.462;2024-01-11T08:00:00;12.25;8.50;5.25
78512;PMS5003;67809;55.034;73.462;2024-01-11T08:02:26;17.50;12.50;9.00
78512;PMS5003;67809;55.034;73.462;2024-01-11T08:04:54;9.00;7.00;4.67
78512;PMS5003;67809;55.034;73.462;2024-01-11T08:07:22;11.75;9.00;5.00
78512;PMS5003;67809;55.034;73.462;2024-01-11T08:09:48;10.75;8.75;5.00
78512;PMS5003;67809;55.034;73.462;2024-01-11T08:12:14;13.00;11.00;6.00
78512;PMS5003;67809;55.034;73.462;2024-01-11T08:14:40;18.25;14.25;8.00
78512;PMS5003;67809;55.034;73.462;2024-01-11T08:17:10;20.00;15.75;8.50
78512;PMS5003;67809;55.034;73.462;2024-01-11T08:19:37;10.25;8.00;5.00
78512;PMS5003;67809;55.034;73.462;2024-01-11T08:22:04;10.50;8.50;5.00
78512;PMS5003;67809;55.034;73.462;2024-01-11T08:24:31;11.00;9.00;5.50
78512;PMS5003;67809;55.034;73.462;2024-01-11T08:26:57;18.00;14.00;8.00
78512;PMS5003;67809;55.034;73.462;2024-01-11T08:29:28;10.00;8.00;5.00
78512;PMS5003;67809;55.034;73.462;2024-01-11T08:32:02;12.25;10.00;6.00
78512;PMS5003;67809;55.034;73.462;2024-01-11T08:34:30;14.50;11.00;6.50
78512;PMS5003;67809;55.034;73.462;2024-01-11T08:36:56;17.00;13.33;8.00
78512;PMS5003;67809;55.034;73.462;2024-01-11T08:39:22;30.00;22.00;12.75
78512;PMS5003;67809;55.034;73.462;2024-01-11T08:41:48;23.25;19.00;10.00
78512;PMS5003;67809;55.034;73.462;2024-01-11T08:44:14;22.50;17.50;9.50
78512;PMS5003;67809;55.034;73.462;2024-01-11T08:46:40;25.00;18.00;10.00
78512;PMS5003;67809;55.034;73.462;2024-01-11T08:49:06;19.00;14.00;8.50
78512;PMS5003;67809;55.034;73.462;2024-01-11T08:51:32;27.25;20.25;11.00
78512;PMS5003;67809;55.034;73.462;2024-01-11T08:53:59;30.00;21.00;11.00
78512;PMS5003;67809;55.034;73.462;2024-01-11T08:56:25;22.67;18.33;12.00
78512;PMS5003;67809;55.034;73.462;2024-01-11T08:58:51;13.00;9.75;6.00
78512;PMS5003;67809;55.034;73.462;2024-01-11T09:01:17;12.00;10.00;6.00
78512;PMS5003;67809;55.034;73.462;2024-01-11T09:03:44;14.50;11.50;7.00
78512;PMS5003;67809;55.034;73.462;2024-01-11T09:06:10;18.00;13.67;8.00
78512;PMS5003;67809;55.034;73.462;2024-01-11T09:08:36;17.50;14.00;9.00
78512;PMS5003;67809;55.034;73.462;2024-01-11T09:11:03;24.00;18.50;11.00
78512;PMS5003;67809;55.034;73.462;2024-01-11T09:13:29;17.25;12.00;6.75
78512;PMS5003;67809;55.034;73.462;2024-01-11T09:15:55;20.00;16.00;9.00
78512;PMS5003;67809;55.034;73.462;2024-01-11T09:18:21;23.25;17.25;9.00
78512;PMS5003;67809;55.034;73.462;2024-01-11T09:20:47;13.00;11.50;7.00
78512;PMS5003;67809;55.034;73.462;2024-01-11T09:23:14;20.00;16.00;10.00
78512;PMS5003;67809;55.034;73.462;2024-01-11T09:25:41;17.25;13.00;8.00
78512;PMS5003;67809;55.034;73.462;2024-01-11T09:28:07;20.00;14.75;9.00
78512;PMS5003;67809;55.034;73.462;2024-01-11T09:30:33;31.00;22.75;12.00
78512;PMS5003;67809;55.034;73.462;2024-01-11T09:32:59;19.50;16.00;9.50
78512;PMS5003;67809;55.034;73.462;2024-01-11T09:35:25;28.33;22.00;14.00
78512;PMS5003;67809;55.034;73.462;2024-01-11T09:37:52;20.50;16.75;9.75
78512;PMS5003;67809;55.034;73.462;2024-01-11T09:40:18;15.50;11.25;6.25
78512;PMS5003;67809;55.034;73.462;2024-01-11T09:42:48;14.25;10.75;6.00
78512;PMS5003;67809;55.034;73.462;2024-01-11T09:45:15;25.00;20.00;12.00
78512;PMS5003;67809;55.034;73.462;2024-01-11T09:47:44;21.50;18.00;11.00
78512;PMS5003;67809;55.034;73.462;2024-01-11T09:50:14;29.00;21.00;13.00
78512;PMS5003;67809;55.034;73.462;2024-01-11T09:52:47;23.00;17.00;9.00
78512;PMS5003;67809;55.034;73.462;2024-01-11T09:55:14;29.00;21.00;11.75
78512;PMS5003;67809;55.034;73.462;2024-01-11T09:57:45;25.00;19.00;10.67
78512;PMS5003;67809;55.034;73.462;2024-01-11T10:00:33;29.25;22.00;11.00
78512;PMS5003;67809;55.034;73.462;2024-01-11T10:02:58;30.25;23.50;14.50
78512;PMS5003;67809;55.034;73.462;2024-01-11T10:05:24;33.00;24.00;13.00
78512;PMS5003;67809;55.034;73.462;2024-01-11T10:07:51;24.00;18.33;10.67
78512;PMS5003;67809;55.034;73.462;2024-01-11T10:10:17;24.00;19.75;12.00
78512;PMS5003;67809;55.034;73.462;2024-01-11T10:12:44;24.25;18.50;11.00
78512;PMS5003;67809;55.034;73.462;2024-01-11T10:15:10;19.00;15.00;9.25
78512;PMS5003;67809;55.034;73.462;2024-01-11T10:17:43;24.75;17.50;11.25
78512;PMS5003;67809;55.034;73.462;2024-01-11T10:20:12;15.50;12.25;7.50
78512;PMS5003;67809;55.034;73.462;2024-01-11T10:22:43;24.75;18.50;11.75
78512;PMS5003;67809;55.034;73.462;2024-01-11T10:25:09;32.75;25.00;13.50
78512;PMS5003;67809;55.034;73.462;2024-01-11T10:27:41;33.00;23.75;13.00
78512;PMS5003;67809;55.034;73.462;2024-01-11T10:30:09;30.75;23.25;13.25
78512;PMS5003;67809;55.034;73.462;2024-01-11T10:32:35;32.00;23.00;12.00
78512;PMS5003;67809;55.034;73.462;2024-01-11T10:35:01;25.25;19.75;12.75
78512;PMS5003;67809;55.034;73.462;2024-01-11T10:37:36;35.00;27.75;17.00
78512;PMS5003;67809;55.034;73.462;2024-01-11T10:40:05;25.25;18.00;11.00
78512;PMS5003;67809;55.034;73.462;2024-01-11T10:42:41;19.50;14.00;7.75
78512;PMS5003;67809;55.034;73.462;2024-01-11T10:45:15;15.50;11.50;6.50
78512;PMS5003;67809;55.034;73.462;2024-01-11T10:47:47;18.33;13.67;8.00
78512;PMS5003;67809;55.034;73.462;2024-01-11T10:50:14;24.75;19.50;12.00
78512;PMS5003;67809;55.034;73.462;2024-01-11T10:52:43;24.00;17.50;10.50
78512;PMS5003;67809;55.034;73.462;2024-01-11T10:55:15;34.00;24.00;13.75
78512;PMS5003;67809;55.034;73.462;2024-01-11T10:57:42;33.00;23.67;14.00
78512;PMS5003;67809;55.034;73.462;2024-01-11T11:00:08;19.50;14.00;9.00
78512;PMS5003;67809;55.034;73.462;2024-01-11T11:02:37;39.75;26.50;13.00
78512;PMS5003;67809;55.034;73.462;2024-01-11T11:05:04;17.50;13.00;8.50
78512;PMS5003;67809;55.034;73.462;2024-01-11T11:07:33;24.00;19.00;10.00
78512;PMS5003;67809;55.034;73.462;2024-01-11T11:10:00;26.75;18.50;11.00
78512;PMS5003;67809;55.034;73.462;2024-01-11T11:12:27;26.00;20.00;12.50
78512;PMS5003;67809;55.034;73.462;2024-01-11T11:14:55;31.75;21.50;11.00
78512;PMS5003;67809;55.034;73.462;2024-01-11T11:17:38;26.00;21.00;12.00
78512;PMS5003;67809;55.034;73.462;2024-01-11T13:27:05;51.00;39.00;24.00
78512;PMS5003;67809;55.034;73.462;2024-01-11T13:29:32;47.00;34.25;21.25
78512;PMS5003;67809;55.034;73.462;2024-01-11T13:31:58;48.50;33.75;21.50
78512;PMS5003;67809;55.034;73.462;2024-01-11T13:34:29;49.80;36.00;23.00
78512;PMS5003;67809;55.034;73.462;2024-01-11T13:36:55;39.75;29.75;18.75
78512;PMS5003;67809;55.034;73.462;2024-01-11T13:39:40;53.75;40.75;25.50
78512;PMS5003;67809;55.034;73.462;2024-01-11T13:42:27;56.00;41.00;25.00
78512;PMS5003;67809;55.034;73.462;2024-01-11T13:44:54;52.00;37.00;21.67
78512;PMS5003;67809;55.034;73.462;2024-01-11T13:47:20;42.00;31.00;19.50
78512;PMS5003;67809;55.034;73.462;2024-01-11T13:49:46;51.25;38.00;23.50
78512;PMS5003;67809;55.034;73.462;2024-01-11T13:52:12;40.25;30.00;19.00
78512;PMS5003;67809;55.034;73.462;2024-01-11T13:54:40;37.00;28.50;17.50
78512;PMS5003;67809;55.034;73.462;2024-01-11T13:57:06;41.25;31.25;19.75
78512;PMS5003;67809;55.034;73.462;2024-01-11T13:59:32;42.75;33.00;21.00
78512;PMS5003;67809;55.034;73.462;2024-01-11T14:02:19;50.25;38.00;24.50
78512;PMS5003;67809;55.034;73.462;2024-01-11T14:04:45;54.00;40.00;26.00
78512;PMS5003;67809;55.034;73.462;2024-01-11T14:07:12;41.75;31.00;19.25
78512;PMS5003;67809;55.034;73.462;2024-01-11T14:09:38;40.50;31.00;18.50
78512;PMS5003;67809;55.034;73.462;2024-01-11T14:12:04;47.00;35.00;21.00
78512;PMS5003;67809;55.034;73.462;2024-01-11T14:14:30;38.50;29.25;17.25
78512;PMS5003;67809;55.034;73.462;2024-01-11T14:16:56;42.33;32.00;21.00
78512;PMS5003;67809;55.034;73.462;2024-01-11T14:19:22;41.25;32.25;19.50
78512;PMS5003;67809;55.034;73.462;2024-01-11T14:21:48;44.00;35.00;21.00
78512;PMS5003;67809;55.034;73.462;2024-01-11T14:24:14;32.75;25.25;16.00
78512;PMS5003;67809;55.034;73.462;2024-01-11T14:26:41;45.67;33.67;19.67
78512;PMS5003;67809;55.034;73.462;2024-01-11T14:29:09;54.00;39.50;24.00
78512;PMS5003;67809;55.034;73.462;2024-01-11T14:31:36;45.75;34.00;20.00
78512;PMS5003;67809;55.034;73.462;2024-01-11T14:34:03;34.75;27.75;16.75
78512;PMS5003;67809;55.034;73.462;2024-01-11T14:36:29;41.67;32.00;20.00
78512;PMS5003;67809;55.034;73.462;2024-01-11T14:38:55;43.75;33.50;20.75
78512;PMS5003;67809;55.034;73.462;2024-01-11T14:41:22;54.25;39.00;24.25
78512;PMS5003;67809;55.034;73.462;2024-01-11T14:43:49;41.25;32.00;21.00
78512;PMS5003;67809;55.034;73.462;2024-01-11T14:46:15;54.00;38.33;23.00
78512;PMS5003;67809;55.034;73.462;2024-01-11T14:48:41;48.00;37.25;23.00
78512;PMS5003;67809;55.034;73.462;2024-01-11T14:51:07;42.50;32.00;19.00
78512;PMS5003;67809;55.034;73.462;2024-01-11T14:53:34;47.25;33.75;21.50
78512;PMS5003;67809;55.034;73.462;2024-01-11T14:56:00;40.50;31.00;19.50
78512;PMS5003;67809;55.034;73.462;2024-01-11T14:58:26;44.00;33.00;20.00
78512;PMS5003;67809;55.034;73.462;2024-01-11T15:00:52;46.00;33.75;20.25
78512;PMS5003;67809;55.034;73.462;2024-01-11T15:03:19;47.75;34.75;23.00
78512;PMS5003;67809;55.034;73.462;2024-01-11T15:05:50;31.75;23.75;14.50
78512;PMS5003;67809;55.034;73.462;2024-01-11T15:08:18;37.75;29.00;17.25
78512;PMS5003;67809;55.034;73.462;2024-01-11T15:10:45;41.75;33.00;20.00
78512;PMS5003;67809;55.034;73.462;2024-01-11T15:13:12;36.25;28.25;18.00
78512;PMS5003;67809;55.034;73.462;2024-01-11T15:15:38;41.50;31.00;18.50
78512;PMS5003;67809;55.034;73.462;2024-01-11T15:18:04;50.50;37.75;23.00
78512;PMS5003;67809;55.034;73.462;2024-01-11T15:20:31;39.00;29.25;18.00
78512;PMS5003;67809;55.034;73.462;2024-01-11T15:22:57;38.50;29.00;17.50
78512;PMS5003;67809;55.034;73.462;2024-01-11T15:25:28;40.00;27.00;15.80
78512;PMS5003;67809;55.034;73.462;2024-01-11T15:27:55;36.25;26.75;16.25
78512;PMS5003;67809;55.034;73.462;2024-01-11T15:30:21;47.00;34.50;21.25
78512;PMS5003;67809;55.034;73.462;2024-01-11T15:32:47;43.50;33.00;21.00
78512;PMS5003;67809;55.034;73.462;2024-01-11T15:35:13;42.00;31.00;18.25
78512;PMS5003;67809;55.034;73.462;2024-01-11T15:37:39;44.00;33.00;20.00
78512;PMS5003;67809;55.034;73.462;2024-01-11T15:40:05;35.00;26.75;16.00
78512;PMS5003;67809;55.034;73.462;2024-01-11T15:42:32;36.00;27.00;18.00
78512;PMS5003;67809;55.034;73.462;2024-01-11T15:45:00;25.75;20.50;12.00
78512;PMS5003;67809;55.034;73.462;2024-01-11T15:47:32;30.67;24.00;13.33
78512;PMS5003;67809;55.034;73.462;2024-01-11T15:49:58;33.50;25.25;13.00
78512;PMS5003;67809;55.034;73.462;2024-01-11T15:52:24;23.25;17.75;10.50